Time,TemperatureF,DewpointF,PressureIn,WindDirection,WindDirectionDegrees,WindSpeedMPH,WindSpeedGustMPH,Humidity,HourlyPrecipIn,Conditions,Clouds,dailyrainin,SoftwareType,DateUTC
2013-11-02 00:00:00,49.6,49.3,29.93,SE,136,0.0,0.0,99,0.00,,,0.00,Wunderground v.1.15,2013-11-02 07:00:00,
2013-11-02 00:10:00,49.6,49.3,29.94,SE,136,0.0,1.0,99,0.00,,,0.00,Wunderground v.1.15,2013-11-02 07:10:00,
2013-11-02 00:20:00,49.7,49.4,29.93,SE,136,0.0,0.0,99,0.00,,,0.00,Wunderground v.1.15,2013-11-02 07:20:00,
2013-11-02 00:30:00,49.7,49.4,29.92,SE,136,0.0,0.0,99,0.00,,,0.00,Wunderground v.1.15,2013-11-02 07:30:00,
2013-11-02 00:35:00,49.7,49.4,29.93,SE,136,0.0,0.0,99,0.00,,,0.00,Wunderground v.1.15,2013-11-02 07:35:00,
2013-11-02 00:45:00,49.7,49.4,29.93,SE,136,0.0,0.0,99,0.00,,,0.00,Wunderground v.1.15,2013-11-02 07:45:00,
2013-11-02 00:55:00,49.8,49.5,29.93,SE,136,0.0,0.0,99,0.00,,,0.00,Wunderground v.1.15,2013-11-02 07:55:00,
2013-11-02 01:00:00,49.7,49.4,29.93,SE,136,0.0,0.0,99,0.00,,,0.00,Wunderground v.1.15,2013-11-02 08:00:00,
2013-11-02 01:10:00,49.7,49.4,29.93,WNW,285,0.0,0.0,99,0.00,,,0.00,Wunderground v.1.15,2013-11-02 08:10:00,
2013-11-02 01:20:00,49.7,49.4,29.92,South,190,0.0,0.0,99,0.00,,,0.00,Wunderground v.1.15,2013-11-02 08:20:00,
2013-11-02 01:30:00,49.6,49.3,29.92,NNW,338,0.0,0.0,99,0.00,,,0.01,Wunderground v.1.15,2013-11-02 08:30:00,
2013-11-02 01:35:00,49.5,49.2,29.92,NNW,338,0.0,0.0,99,0.00,,,0.01,Wunderground v.1.15,2013-11-02 08:35:00,
2013-11-02 01:45:00,49.5,49.2,29.92,NNW,338,0.0,0.0,99,0.04,,,0.02,Wunderground v.1.15,2013-11-02 08:45:00,
2013-11-02 01:55:00,49.4,49.1,29.93,NNW,338,0.0,0.0,99,0.00,,,0.02,Wunderground v.1.15,2013-11-02 08:55:00,
2013-11-02 02:00:00,49.5,49.2,29.93,NNW,338,0.0,0.0,99,0.00,,,0.02,Wunderground v.1.15,2013-11-02 09:00:00,
2013-11-02 02:10:00,49.4,49.1,29.93,NNW,338,0.0,0.0,99,0.00,,,0.02,Wunderground v.1.15,2013-11-02 09:10:00,
2013-11-02 02:20:00,49.4,49.1,29.93,East,92,0.0,0.0,99,0.00,,,0.02,Wunderground v.1.15,2013-11-02 09:20:00,
2013-11-02 02:30:00,49.4,49.1,29.93,ESE,107,0.0,0.0,99,0.00,,,0.03,Wunderground v.1.15,2013-11-02 09:30:00,
2013-11-02 02:40:00,49.4,49.1,29.92,ESE,111,0.0,0.0,99,0.00,,,0.03,Wunderground v.1.15,2013-11-02 09:40:00,
2013-11-02 02:50:00,49.4,49.1,29.93,WNW,301,0.0,0.0,99,0.00,,,0.03,Wunderground v.1.15,2013-11-02 09:50:00,
2013-11-02 03:00:00,49.5,49.2,29.93,SSE,155,0.0,0.0,99,0.00,,,0.03,Wunderground v.1.15,2013-11-02 10:00:00,
2013-11-02 03:10:00,49.7,49.4,29.93,WSW,244,0.0,0.0,99,0.00,,,0.03,Wunderground v.1.15,2013-11-02 10:10:00,
2013-11-02 03:20:00,49.7,49.4,29.92,SE,128,1.0,1.0,99,0.00,,,0.03,Wunderground v.1.15,2013-11-02 10:20:00,
2013-11-02 03:30:00,50.1,49.8,29.90,East,98,3.0,5.0,99,0.00,,,0.03,Wunderground v.1.15,2013-11-02 10:30:00,
2013-11-02 03:40:00,50.6,50.6,29.89,SE,136,4.0,4.0,100,0.00,,,0.03,Wunderground v.1.15,2013-11-02 10:40:00,
2013-11-02 03:50:00,51.0,50.2,29.88,South,178,6.0,6.0,97,0.00,,,0.03,Wunderground v.1.15,2013-11-02 10:50:00,
2013-11-02 04:00:00,51.3,50.5,29.87,SSE,164,1.0,2.0,97,0.00,,,0.03,Wunderground v.1.15,2013-11-02 11:00:00,
2013-11-02 04:10:00,51.3,50.2,29.87,SSW,209,3.0,3.0,96,0.00,,,0.03,Wunderground v.1.15,2013-11-02 11:10:00,
2013-11-02 04:15:00,51.2,50.1,29.88,SSE,162,1.0,3.0,96,0.00,,,0.03,Wunderground v.1.15,2013-11-02 11:15:00,
2013-11-02 04:25:00,51.2,49.8,29.88,SW,223,1.0,1.0,95,0.00,,,0.03,Wunderground v.1.15,2013-11-02 11:25:00,
2013-11-02 04:30:00,51.3,50.2,29.89,SE,141,1.0,2.0,96,0.00,,,0.04,Wunderground v.1.15,2013-11-02 11:30:00,
2013-11-02 04:40:00,51.4,50.3,29.89,ESE,121,1.0,1.0,96,0.30,,,0.06,Wunderground v.1.15,2013-11-02 11:40:00,
2013-11-02 04:45:00,51.3,50.2,29.89,ESE,123,1.0,1.0,96,0.15,,,0.07,Wunderground v.1.15,2013-11-02 11:45:00,
2013-11-02 04:55:00,51.2,50.4,29.91,SE,140,1.0,3.0,97,0.08,,,0.09,Wunderground v.1.15,2013-11-02 11:55:00,
2013-11-02 05:00:00,51.2,50.4,29.91,SE,134,1.0,1.0,97,0.11,,,0.10,Wunderground v.1.15,2013-11-02 12:00:00,
2013-11-02 05:10:00,50.9,50.4,29.91,NNE,24,1.0,3.0,98,0.18,,,0.14,Wunderground v.1.15,2013-11-02 12:10:00,
2013-11-02 05:20:00,51.2,50.9,29.92,NNE,32,2.0,2.0,99,0.09,,,0.16,Wunderground v.1.15,2013-11-02 12:20:00,
2013-11-02 05:30:00,52.1,51.8,29.92,SE,140,2.0,2.0,99,0.04,,,0.17,Wunderground v.1.15,2013-11-02 12:30:00,
2013-11-02 05:40:00,52.4,52.1,29.93,North,5,2.0,3.0,99,0.05,,,0.18,Wunderground v.1.15,2013-11-02 12:40:00,
2013-11-02 05:50:00,52.4,51.9,29.93,NE,34,2.0,2.0,98,0.24,,,0.22,Wunderground v.1.15,2013-11-02 12:50:00,
2013-11-02 06:00:00,52.7,51.9,29.95,ENE,62,3.0,4.0,97,0.26,,,0.26,Wunderground v.1.15,2013-11-02 13:00:00,
2013-11-02 06:10:00,52.7,51.6,29.95,East,81,4.0,5.0,96,0.06,,,0.27,Wunderground v.1.15,2013-11-02 13:10:00,
2013-11-02 06:20:00,52.6,51.2,29.96,SW,236,3.0,3.0,95,0.05,,,0.27,Wunderground v.1.15,2013-11-02 13:20:00,
2013-11-02 06:25:00,52.6,51.2,29.96,WNW,301,4.0,8.0,95,0.04,,,0.27,Wunderground v.1.15,2013-11-02 13:25:00,
2013-11-02 06:35:00,52.3,51.2,29.97,SSW,193,3.0,4.0,96,0.00,,,0.28,Wunderground v.1.15,2013-11-02 13:35:00,
2013-11-02 06:45:00,51.9,50.8,29.98,SSW,205,1.0,3.0,96,0.04,,,0.29,Wunderground v.1.15,2013-11-02 13:45:00,
2013-11-02 06:55:00,51.7,50.6,29.99,NNW,333,2.0,2.0,96,0.04,,,0.29,Wunderground v.1.15,2013-11-02 13:55:00,
2013-11-02 07:00:00,51.5,50.4,29.99,East,91,2.0,2.0,96,0.00,,,0.29,Wunderground v.1.15,2013-11-02 14:00:00,
2013-11-02 07:10:00,51.2,50.1,30.00,WSW,252,4.0,4.0,96,0.00,,,0.29,Wunderground v.1.15,2013-11-02 14:10:00,
2013-11-02 07:20:00,51.0,50.2,30.00,NW,306,2.0,2.0,97,0.00,,,0.29,Wunderground v.1.15,2013-11-02 14:20:00,
2013-11-02 07:30:00,50.8,50.0,30.01,North,350,0.0,1.0,97,0.00,,,0.29,Wunderground v.1.15,2013-11-02 14:30:00,
2013-11-02 07:40:00,50.6,50.1,30.01,SW,229,1.0,1.0,98,0.00,,,0.29,Wunderground v.1.15,2013-11-02 14:40:00,
2013-11-02 07:50:00,50.6,49.8,30.02,West,260,2.0,2.0,97,0.00,,,0.29,Wunderground v.1.15,2013-11-02 14:50:00,
2013-11-02 08:00:00,50.3,49.5,30.02,WNW,295,2.0,2.0,97,0.00,,,0.30,Wunderground v.1.15,2013-11-02 15:00:00,
2013-11-02 08:10:00,50.1,49.3,30.03,West,277,1.0,1.0,97,0.00,,,0.30,Wunderground v.1.15,2013-11-02 15:10:00,
2013-11-02 08:20:00,49.7,48.9,30.04,SSW,213,2.0,2.0,97,0.00,,,0.30,Wunderground v.1.15,2013-11-02 15:20:00,
2013-11-02 08:30:00,49.6,48.8,30.04,WSW,244,2.0,4.0,97,0.00,,,0.30,Wunderground v.1.15,2013-11-02 15:30:00,
2013-11-02 08:35:00,49.7,48.6,30.04,WSW,237,2.0,4.0,96,0.00,,,0.30,Wunderground v.1.15,2013-11-02 15:35:00,
2013-11-02 08:45:00,50.0,49.2,30.05,SW,235,2.0,3.0,97,0.00,,,0.30,Wunderground v.1.15,2013-11-02 15:45:00,
2013-11-02 08:55:00,50.0,49.2,30.06,WNW,299,3.0,5.0,97,0.00,,,0.30,Wunderground v.1.15,2013-11-02 15:55:00,
2013-11-02 09:00:00,50.0,49.2,30.06,WSW,252,2.0,2.0,97,0.00,,,0.30,Wunderground v.1.15,2013-11-02 16:00:00,
2013-11-02 09:10:00,50.0,49.2,30.06,WSW,254,2.0,2.0,97,0.00,,,0.30,Wunderground v.1.15,2013-11-02 16:10:00,
2013-11-02 09:20:00,50.1,49.6,30.07,WSW,242,1.0,1.0,98,0.00,,,0.30,Wunderground v.1.15,2013-11-02 16:20:00,
2013-11-02 09:30:00,50.1,49.3,30.07,SSW,198,1.0,1.0,97,0.00,,,0.30,Wunderground v.1.15,2013-11-02 16:30:00,
2013-11-02 09:40:00,50.3,49.8,30.08,WSW,250,0.0,2.0,98,0.00,,,0.30,Wunderground v.1.15,2013-11-02 16:40:00,
2013-11-02 09:50:00,50.4,49.6,30.08,South,171,2.0,2.0,97,0.00,,,0.30,Wunderground v.1.15,2013-11-02 16:50:00,
2013-11-02 10:00:00,50.6,49.2,30.08,NNW,334,2.0,2.0,95,0.00,,,0.30,Wunderground v.1.15,2013-11-02 17:00:00,
2013-11-02 10:10:00,50.7,49.3,30.08,NW,308,1.0,3.0,95,0.00,,,0.30,Wunderground v.1.15,2013-11-02 17:10:00,
2013-11-02 10:20:00,51.5,49.8,30.08,WSW,251,2.0,4.0,94,0.00,,,0.30,Wunderground v.1.15,2013-11-02 17:20:00,
2013-11-02 10:25:00,51.9,49.9,30.08,SSE,148,1.0,4.0,93,0.00,,,0.30,Wunderground v.1.15,2013-11-02 17:25:00,
2013-11-02 10:35:00,52.7,50.7,30.09,ENE,70,1.0,1.0,93,0.00,,,0.30,Wunderground v.1.15,2013-11-02 17:35:00,
2013-11-02 10:45:00,52.9,50.9,30.09,NNW,340,1.0,2.0,93,0.00,,,0.30,Wunderground v.1.15,2013-11-02 17:45:00,
2013-11-02 10:55:00,52.4,50.7,30.10,WNW,286,1.0,3.0,94,0.14,,,0.35,Wunderground v.1.15,2013-11-02 17:55:00,
2013-11-02 11:00:00,52.1,50.7,30.10,SW,221,1.0,1.0,95,0.06,,,0.35,Wunderground v.1.15,2013-11-02 18:00:00,
2013-11-02 11:10:00,52.4,51.0,30.10,WNW,286,1.0,1.0,95,0.00,,,0.35,Wunderground v.1.15,2013-11-02 18:10:00,
2013-11-02 11:20:00,53.4,52.0,30.10,WNW,288,0.0,0.0,95,0.00,,,0.35,Wunderground v.1.15,2013-11-02 18:20:00,
2013-11-02 11:25:00,53.9,51.9,30.10,North,360,1.0,2.0,93,0.00,,,0.35,Wunderground v.1.15,2013-11-02 18:25:00,
2013-11-02 11:35:00,54.3,51.7,30.11,North,355,1.0,2.0,91,0.00,,,0.35,Wunderground v.1.15,2013-11-02 18:35:00,
2013-11-02 11:45:00,54.2,52.5,30.11,WNW,294,1.0,1.0,94,0.00,,,0.35,Wunderground v.1.15,2013-11-02 18:45:00,
2013-11-02 11:55:00,53.8,51.2,30.11,WNW,293,2.0,3.0,91,0.00,,,0.35,Wunderground v.1.15,2013-11-02 18:55:00,
2013-11-02 12:00:00,53.9,51.6,30.11,SW,225,2.0,3.0,92,0.00,,,0.35,Wunderground v.1.15,2013-11-02 19:00:00,
2013-11-02 12:10:00,53.1,50.2,30.11,West,263,2.0,4.0,90,0.00,,,0.35,Wunderground v.1.15,2013-11-02 19:10:00,
2013-11-02 12:20:00,52.4,49.8,30.11,WNW,284,2.0,9.0,91,0.00,,,0.35,Wunderground v.1.15,2013-11-02 19:20:00,
2013-11-02 12:30:00,53.9,50.4,30.11,WNW,285,3.0,3.0,88,0.00,,,0.35,Wunderground v.1.15,2013-11-02 19:30:00,
2013-11-02 12:35:00,54.1,50.3,30.11,NNW,336,2.0,3.0,87,0.00,,,0.35,Wunderground v.1.15,2013-11-02 19:35:00,
2013-11-02 12:45:00,54.5,50.4,30.11,SW,234,2.0,6.0,86,0.00,,,0.35,Wunderground v.1.15,2013-11-02 19:45:00,
2013-11-02 12:55:00,54.0,48.3,30.11,NW,324,3.0,5.0,81,0.00,,,0.35,Wunderground v.1.15,2013-11-02 19:55:00,
2013-11-02 13:00:00,53.8,50.6,30.11,SSW,194,2.0,5.0,89,0.00,,,0.35,Wunderground v.1.15,2013-11-02 20:00:00,
2013-11-02 13:10:00,53.3,48.9,30.11,NNW,329,3.0,3.0,85,0.00,,,0.35,Wunderground v.1.15,2013-11-02 20:10:00,
2013-11-02 13:20:00,52.3,47.9,30.11,SSW,198,3.0,3.0,85,0.00,,,0.35,Wunderground v.1.15,2013-11-02 20:20:00,
2013-11-02 13:30:00,54.6,49.2,30.11,West,276,4.0,4.0,82,0.00,,,0.35,Wunderground v.1.15,2013-11-02 20:30:00,
2013-11-02 13:40:00,55.9,51.1,30.11,North,351,2.0,2.0,84,0.00,,,0.35,Wunderground v.1.15,2013-11-02 20:40:00,
2013-11-02 13:50:00,54.2,49.1,30.11,West,281,2.0,6.0,83,0.00,,,0.35,Wunderground v.1.15,2013-11-02 20:50:00,
2013-11-02 14:00:00,54.5,49.1,30.11,North,350,3.0,4.0,82,0.00,,,0.35,Wunderground v.1.15,2013-11-02 21:00:00,
2013-11-02 14:10:00,55.8,49.4,30.11,NW,304,3.0,4.0,79,0.00,,,0.35,Wunderground v.1.15,2013-11-02 21:10:00,
2013-11-02 14:20:00,55.6,48.8,30.11,NNW,335,3.0,4.0,78,0.00,,,0.35,Wunderground v.1.15,2013-11-02 21:20:00,
2013-11-02 14:30:00,55.7,48.9,30.11,NNW,347,3.0,4.0,78,0.00,,,0.35,Wunderground v.1.15,2013-11-02 21:30:00,
2013-11-02 14:40:00,55.4,49.3,30.11,West,271,5.0,10.0,80,0.00,,,0.35,Wunderground v.1.15,2013-11-02 21:40:00,
2013-11-02 14:50:00,55.3,47.9,30.12,NW,314,3.0,3.0,76,0.00,,,0.35,Wunderground v.1.15,2013-11-02 21:50:00,
2013-11-02 15:00:00,55.4,47.6,30.12,West,265,2.0,2.0,75,0.00,,,0.35,Wunderground v.1.15,2013-11-02 22:00:00,
2013-11-02 15:10:00,56.0,48.2,30.12,NW,315,2.0,2.0,75,0.00,,,0.35,Wunderground v.1.15,2013-11-02 22:10:00,
2013-11-02 15:20:00,55.9,48.8,30.12,WNW,302,4.0,4.0,77,0.00,,,0.35,Wunderground v.1.15,2013-11-02 22:20:00,
2013-11-02 15:30:00,55.0,47.6,30.12,WNW,284,3.0,10.0,76,0.00,,,0.35,Wunderground v.1.15,2013-11-02 22:30:00,
2013-11-02 15:40:00,55.0,47.6,30.12,NNW,331,4.0,4.0,76,0.00,,,0.35,Wunderground v.1.15,2013-11-02 22:40:00,
2013-11-02 15:45:00,55.1,47.0,30.12,NW,315,5.0,5.0,74,0.00,,,0.35,Wunderground v.1.15,2013-11-02 22:45:00,
2013-11-02 15:55:00,54.8,47.0,30.12,SW,233,3.0,4.0,75,0.00,,,0.35,Wunderground v.1.15,2013-11-02 22:55:00,
2013-11-02 16:00:00,54.8,46.3,30.12,North,360,3.0,3.0,73,0.00,,,0.35,Wunderground v.1.15,2013-11-02 23:00:00,
2013-11-02 16:10:00,54.7,47.6,30.13,WNW,294,2.0,5.0,77,0.00,,,0.35,Wunderground v.1.15,2013-11-02 23:10:00,
2013-11-02 16:20:00,54.2,49.8,30.14,NNW,346,2.0,2.0,85,0.00,,,0.35,Wunderground v.1.15,2013-11-02 23:20:00,
2013-11-02 16:30:00,52.9,47.2,30.14,WNW,296,1.0,2.0,81,0.00,,,0.35,Wunderground v.1.15,2013-11-02 23:30:00,
2013-11-02 16:40:00,52.0,47.3,30.14,NNW,346,1.0,2.0,84,0.00,,,0.35,Wunderground v.1.15,2013-11-02 23:40:00,
2013-11-02 16:50:00,51.4,46.7,30.14,NW,311,1.0,6.0,84,0.00,,,0.35,Wunderground v.1.15,2013-11-02 23:50:00,
2013-11-02 17:00:00,51.4,47.4,30.14,NNE,30,2.0,2.0,86,0.00,,,0.35,Wunderground v.1.15,2013-11-03 00:00:00,
2013-11-02 17:10:00,51.2,47.2,30.14,NW,318,0.0,2.0,86,0.00,,,0.35,Wunderground v.1.15,2013-11-03 00:10:00,
2013-11-02 17:20:00,50.8,46.1,30.14,West,265,0.0,0.0,84,0.00,,,0.35,Wunderground v.1.15,2013-11-03 00:20:00,
2013-11-02 17:30:00,50.8,46.5,30.14,North,355,1.0,1.0,85,0.00,,,0.35,Wunderground v.1.15,2013-11-03 00:30:00,
2013-11-02 17:40:00,50.7,46.4,30.15,West,279,1.0,1.0,85,0.00,,,0.35,Wunderground v.1.15,2013-11-03 00:40:00,
2013-11-02 17:45:00,50.4,45.7,30.15,West,273,1.0,1.0,84,0.00,,,0.35,Wunderground v.1.15,2013-11-03 00:45:00,
2013-11-02 17:55:00,50.1,45.8,30.15,West,272,1.0,3.0,85,0.00,,,0.35,Wunderground v.1.15,2013-11-03 00:55:00,
2013-11-02 18:00:00,49.8,46.1,30.15,SSW,196,1.0,1.0,87,0.00,,,0.35,Wunderground v.1.15,2013-11-03 01:00:00,
2013-11-02 18:10:00,49.4,46.0,30.15,SW,216,0.0,0.0,88,0.00,,,0.35,Wunderground v.1.15,2013-11-03 01:10:00,
2013-11-02 18:20:00,48.8,45.7,30.15,SW,222,0.0,0.0,89,0.00,,,0.35,Wunderground v.1.15,2013-11-03 01:20:00,
2013-11-02 18:30:00,48.3,45.5,30.15,SW,230,0.0,0.0,90,0.00,,,0.35,Wunderground v.1.15,2013-11-03 01:30:00,
2013-11-02 18:40:00,48.0,45.5,30.15,WSW,254,1.0,1.0,91,0.00,,,0.35,Wunderground v.1.15,2013-11-03 01:40:00,
2013-11-02 18:50:00,47.9,45.4,30.15,WSW,254,0.0,0.0,91,0.00,,,0.35,Wunderground v.1.15,2013-11-03 01:50:00,
2013-11-02 19:00:00,47.6,45.4,30.15,WSW,254,0.0,0.0,92,0.00,,,0.35,Wunderground v.1.15,2013-11-03 02:00:00,
2013-11-02 19:10:00,47.4,45.5,30.16,WSW,254,0.0,0.0,93,0.00,,,0.35,Wunderground v.1.15,2013-11-03 02:10:00,
2013-11-02 19:20:00,47.2,45.6,30.16,WNW,290,0.0,0.0,94,0.00,,,0.35,Wunderground v.1.15,2013-11-03 02:20:00,
2013-11-02 19:30:00,47.2,45.6,30.16,WNW,294,0.0,0.0,94,0.00,,,0.35,Wunderground v.1.15,2013-11-03 02:30:00,
2013-11-02 19:40:00,47.7,45.5,30.16,NNW,343,1.0,2.0,92,0.00,,,0.35,Wunderground v.1.15,2013-11-03 02:40:00,
2013-11-02 19:50:00,47.0,44.8,30.16,NNW,343,0.0,0.0,92,0.00,,,0.35,Wunderground v.1.15,2013-11-03 02:50:00,
2013-11-02 20:00:00,46.5,44.9,30.16,NNW,343,0.0,0.0,94,0.00,,,0.35,Wunderground v.1.15,2013-11-03 03:00:00,
2013-11-02 20:10:00,46.1,44.7,30.17,WNW,290,1.0,2.0,95,0.00,,,0.35,Wunderground v.1.15,2013-11-03 03:10:00,
2013-11-02 20:20:00,45.8,44.4,30.17,WSW,244,0.0,2.0,95,0.00,,,0.35,Wunderground v.1.15,2013-11-03 03:20:00,
2013-11-02 20:35:00,46.0,44.9,30.17,WNW,292,1.0,3.0,96,0.00,,,0.35,Wunderground v.1.15,2013-11-03 03:35:00,
2013-11-02 20:40:00,46.1,45.0,30.17,WSW,251,1.0,3.0,96,0.00,,,0.35,Wunderground v.1.15,2013-11-03 03:40:00,
2013-11-02 20:50:00,46.2,45.1,30.17,NNW,335,1.0,1.0,96,0.00,,,0.35,Wunderground v.1.15,2013-11-03 03:50:00,
2013-11-02 21:00:00,46.0,44.6,30.17,NNW,335,0.0,0.0,95,0.00,,,0.35,Wunderground v.1.15,2013-11-03 04:00:00,
2013-11-02 21:05:00,45.8,44.4,30.17,NNW,335,0.0,0.0,95,0.00,,,0.35,Wunderground v.1.15,2013-11-03 04:05:00,
2013-11-02 21:10:00,45.4,44.1,30.17,NNW,335,0.0,0.0,95,0.00,,,0.35,Wunderground v.1.15,2013-11-03 04:10:00,
2013-11-02 21:20:00,44.7,43.6,30.17,NNW,335,0.0,0.0,96,0.00,,,0.35,Wunderground v.1.15,2013-11-03 04:20:00,
2013-11-02 21:25:00,44.5,43.4,30.17,NNW,335,0.0,0.0,96,0.00,,,0.35,Wunderground v.1.15,2013-11-03 04:25:00,
2013-11-02 21:30:00,44.6,43.8,30.18,SW,229,0.0,3.0,97,0.00,,,0.35,Wunderground v.1.15,2013-11-03 04:30:00,
2013-11-02 21:35:00,45.1,44.6,30.17,SSW,210,2.0,3.0,98,0.00,,,0.36,Wunderground v.1.15,2013-11-03 04:35:00,
2013-11-02 21:40:00,45.7,45.2,30.17,WNW,295,2.0,2.0,98,0.00,,,0.36,Wunderground v.1.15,2013-11-03 04:40:00,
2013-11-02 21:50:00,45.2,44.1,30.17,NNW,329,0.0,0.0,96,0.00,,,0.36,Wunderground v.1.15,2013-11-03 04:50:00,
2013-11-02 22:00:00,45.3,44.5,30.17,WNW,288,1.0,1.0,97,0.00,,,0.36,Wunderground v.1.15,2013-11-03 05:00:00,
2013-11-02 22:10:00,45.2,44.4,30.17,SW,236,0.0,0.0,97,0.00,,,0.36,Wunderground v.1.15,2013-11-03 05:10:00,
2013-11-02 22:20:00,45.0,44.2,30.17,NW,305,0.0,1.0,97,0.00,,,0.36,Wunderground v.1.15,2013-11-03 05:20:00,
2013-11-02 22:30:00,45.1,44.6,30.17,NW,319,0.0,0.0,98,0.00,,,0.36,Wunderground v.1.15,2013-11-03 05:30:00,
2013-11-02 22:35:00,44.3,43.2,30.17,WNW,286,1.0,1.0,96,0.00,,,0.36,Wunderground v.1.15,2013-11-03 05:35:00,
2013-11-02 22:45:00,43.8,43.0,30.17,West,263,1.0,1.0,97,0.00,,,0.36,Wunderground v.1.15,2013-11-03 05:45:00,
2013-11-02 22:55:00,43.9,43.4,30.16,SW,225,0.0,1.0,98,0.00,,,0.36,Wunderground v.1.15,2013-11-03 05:55:00,
2013-11-02 23:00:00,44.0,43.5,30.17,SW,225,0.0,0.0,98,0.00,,,0.36,Wunderground v.1.15,2013-11-03 06:00:00,
2013-11-02 23:10:00,43.9,43.4,30.17,SW,225,0.0,0.0,98,0.00,,,0.36,Wunderground v.1.15,2013-11-03 06:10:00,
2013-11-02 23:20:00,43.5,43.0,30.17,SW,225,0.0,0.0,98,0.00,,,0.36,Wunderground v.1.15,2013-11-03 06:20:00,
2013-11-02 23:25:00,43.4,42.9,30.17,SW,225,0.0,1.0,98,0.00,,,0.36,Wunderground v.1.15,2013-11-03 06:25:00,
2013-11-02 23:30:00,43.4,42.9,30.17,NNW,329,0.0,1.0,98,0.00,,,0.36,Wunderground v.1.15,2013-11-03 06:30:00,
2013-11-02 23:40:00,43.9,43.6,30.17,SSW,207,0.0,3.0,99,0.00,,,0.36,Wunderground v.1.15,2013-11-03 06:40:00,
2013-11-02 23:50:00,43.7,43.2,30.17,SW,236,2.0,2.0,98,0.00,,,0.36,Wunderground v.1.15,2013-11-03 06:50:00,
2013-11-02 23:55:00,43.5,43.0,30.17,NW,313,1.0,1.0,98,0.00,,,0.36,Wunderground v.1.15,2013-11-03 06:55:00,